createdAt,value
2017-09-17T00:00:17.754Z,63.85
2017-09-17T00:00:58.205Z,63.37
2017-09-17T00:01:38.651Z,63.47
2017-09-17T00:02:19.100Z,63.37
2017-09-17T00:02:59.549Z,63.47
2017-09-17T00:03:39.998Z,63.18
2017-09-17T00:04:20.445Z,63.37
2017-09-17T00:05:00.894Z,63.76
2017-09-17T00:05:41.340Z,63.18
2017-09-17T00:06:21.788Z,63.76
2017-09-17T00:07:02.236Z,63.67
2017-09-17T00:07:42.684Z,63.37
2017-09-17T00:08:23.152Z,63.95
2017-09-17T00:09:03.593Z,63.76
2017-09-17T00:09:44.042Z,63.85
2017-09-17T00:10:24.490Z,63.95
2017-09-17T00:11:04.939Z,63.85
2017-09-17T00:11:45.382Z,63.95
2017-09-17T00:12:25.834Z,63.85
2017-09-17T00:13:06.277Z,64.15
2017-09-17T00:13:46.732Z,64.05
2017-09-17T00:14:27.189Z,63.95
2017-09-17T00:15:07.645Z,63.95
2017-09-17T00:15:48.100Z,63.76
2017-09-17T00:16:28.555Z,64.24
2017-09-17T00:17:09.007Z,64.34
2017-09-17T00:17:49.452Z,64.24
2017-09-17T00:18:29.904Z,64.34
2017-09-17T00:19:10.353Z,64.43
2017-09-17T00:19:50.800Z,63.95
2017-09-17T00:20:31.252Z,63.95
2017-09-17T00:21:11.696Z,64.15
2017-09-17T00:21:52.154Z,64.05
2017-09-17T00:22:32.605Z,64.15
2017-09-17T00:23:13.038Z,64.24
2017-09-17T00:23:53.489Z,63.85
2017-09-17T00:24:33.936Z,63.95
2017-09-17T00:25:14.383Z,63.95
2017-09-17T00:25:54.829Z,64.05
2017-09-17T00:26:35.274Z,63.95
2017-09-17T00:27:15.719Z,63.85
2017-09-17T00:27:56.170Z,63.95
2017-09-17T00:28:36.617Z,63.85
2017-09-17T00:29:17.069Z,63.95
2017-09-17T00:29:57.520Z,64.53
2017-09-17T00:30:37.973Z,64.43
2017-09-17T00:31:18.422Z,64.63
2017-09-17T00:31:58.856Z,64.34
2017-09-17T00:32:39.303Z,64.34
2017-09-17T00:33:19.754Z,64.24
2017-09-17T00:34:00.201Z,64.43
2017-09-17T00:34:40.653Z,64.24
2017-09-17T00:35:21.104Z,64.15
2017-09-17T00:36:01.552Z,64.24
2017-09-17T00:36:42.007Z,64.15
2017-09-17T00:37:22.448Z,64.15
2017-09-17T00:38:02.904Z,64.05
2017-09-17T00:38:43.341Z,64.15
2017-09-17T00:39:23.783Z,64.24
2017-09-17T00:40:04.226Z,64.24
2017-09-17T00:40:44.675Z,64.05
2017-09-17T00:41:25.114Z,64.24
2017-09-17T00:42:05.561Z,64.34
2017-09-17T00:42:46.007Z,63.95
2017-09-17T00:43:26.471Z,64.05
2017-09-17T00:44:06.918Z,64.05
2017-09-17T00:44:47.369Z,64.53
2017-09-17T00:45:27.826Z,64.63
2017-09-17T00:46:08.265Z,64.63
2017-09-17T00:46:48.709Z,64.34
2017-09-17T00:47:29.158Z,64.72
2017-09-17T00:48:09.640Z,64.82
2017-09-17T00:48:50.050Z,64.72
2017-09-17T00:49:30.500Z,64.63
2017-09-17T00:50:10.952Z,64.63
2017-09-17T00:50:51.406Z,63.95
2017-09-17T00:51:31.841Z,64.34
2017-09-17T00:52:12.291Z,64.34
2017-09-17T00:52:52.738Z,64.72
2017-09-17T00:53:33.187Z,64.72
2017-09-17T00:54:13.644Z,64.34
2017-09-17T00:54:54.097Z,64.43
2017-09-17T00:55:34.548Z,64.34
2017-09-17T00:56:14.994Z,64.72
2017-09-17T00:56:55.437Z,64.34
2017-09-17T00:57:35.873Z,64.53
2017-09-17T00:58:16.309Z,64.53
2017-09-17T00:58:56.751Z,64.72
2017-09-17T00:59:37.191Z,64.72
2017-09-17T01:00:17.635Z,64.72
2017-09-17T01:00:58.080Z,64.34
2017-09-17T01:01:38.528Z,64.72
2017-09-17T01:02:18.975Z,64.34
2017-09-17T01:02:59.412Z,64.34
2017-09-17T01:03:39.856Z,64.34
2017-09-17T01:04:20.304Z,64.53
2017-09-17T01:05:00.750Z,64.72
2017-09-17T01:05:41.192Z,64.34
2017-09-17T01:06:21.637Z,64.34
2017-09-17T01:07:02.091Z,64.72
2017-09-17T01:07:42.544Z,64.34
2017-09-17T01:08:22.989Z,64.72
2017-09-17T01:09:03.423Z,64.34
2017-09-17T01:09:43.870Z,64.34
2017-09-17T01:10:24.316Z,64.34
2017-09-17T01:11:04.757Z,64.72
2017-09-17T01:11:45.205Z,64.63
2017-09-17T01:12:25.657Z,64.72
2017-09-17T01:13:06.107Z,64.72
2017-09-17T01:13:46.553Z,64.34
2017-09-17T01:14:26.998Z,64.34
2017-09-17T01:15:07.440Z,64.34
2017-09-17T01:17:20.212Z,64.34
2017-09-17T01:18:00.654Z,64.34
2017-09-17T01:18:41.097Z,64.72
2017-09-17T01:19:21.542Z,64.72
2017-09-17T01:20:01.999Z,64.34
2017-09-17T01:20:42.446Z,64.34
2017-09-17T01:21:22.895Z,64.72
2017-09-17T01:22:03.341Z,64.63
2017-09-17T01:22:43.780Z,64.72
2017-09-17T01:23:24.226Z,64.63
2017-09-17T01:24:04.672Z,64.34
2017-09-17T01:24:45.108Z,64.72
2017-09-17T01:25:25.553Z,64.72
2017-09-17T01:26:05.998Z,64.72
2017-09-17T01:26:46.439Z,64.34
2017-09-17T01:27:26.891Z,64.72
2017-09-17T01:28:07.324Z,64.72
2017-09-17T01:28:47.772Z,64.82
2017-09-17T01:29:28.239Z,64.05
2017-09-17T01:30:08.670Z,64.63
2017-09-17T01:30:49.112Z,64.15
2017-09-17T01:31:29.558Z,64.72
2017-09-17T01:32:10.006Z,64.24
2017-09-17T01:32:50.461Z,64.72
2017-09-17T01:33:30.909Z,64.53
2017-09-17T01:34:11.352Z,64.72
2017-09-17T01:34:51.800Z,64.63
2017-09-17T01:35:32.248Z,64.72
2017-09-17T01:36:12.704Z,64.82
2017-09-17T01:36:53.156Z,64.63
2017-09-17T01:37:33.616Z,64.72
2017-09-17T01:38:14.063Z,64.05
2017-09-17T01:38:54.509Z,64.05
2017-09-17T01:39:34.958Z,64.72
2017-09-17T01:40:15.401Z,64.72
2017-09-17T01:40:55.853Z,64.72
2017-09-17T01:41:36.295Z,64.05
2017-09-17T01:42:16.741Z,64.34
2017-09-17T01:42:57.188Z,64.72
2017-09-17T01:43:37.640Z,64.82
2017-09-17T01:44:18.088Z,64.79
2017-09-17T01:44:58.552Z,64.63
2017-09-17T01:45:39.001Z,64.59
2017-09-17T01:46:19.434Z,64.31
2017-09-17T01:48:07.043Z,64.5
2017-09-17T01:48:47.489Z,64.53
2017-09-17T01:49:27.932Z,64.72
2017-09-17T01:50:08.383Z,64.59
2017-09-17T01:50:48.841Z,64.69
2017-09-17T01:51:29.278Z,64.31
2017-09-17T01:52:09.728Z,64.69
2017-09-17T01:52:50.175Z,64.05
2017-09-17T01:53:30.623Z,64.69
2017-09-17T01:54:11.069Z,64.72
2017-09-17T01:54:51.527Z,64.34
2017-09-17T01:55:31.980Z,64.63
2017-09-17T01:56:12.430Z,64.15
2017-09-17T01:56:52.873Z,64.34
2017-09-17T01:57:33.321Z,64.72
2017-09-17T01:58:13.772Z,64.69
2017-09-17T01:58:54.219Z,64.34
2017-09-17T01:59:34.667Z,64.34
2017-09-17T02:00:15.123Z,64.72
2017-09-17T02:00:55.582Z,64.72
2017-09-17T02:01:36.022Z,64.53
2017-09-17T02:02:16.469Z,64.43
2017-09-17T02:02:56.918Z,64.34
2017-09-17T02:03:37.373Z,64.4
2017-09-17T02:04:17.823Z,64.34
2017-09-17T02:04:58.271Z,64.4
2017-09-17T02:05:38.712Z,64.34
2017-09-17T02:06:19.160Z,64.5
2017-09-17T02:06:59.610Z,64.31
2017-09-17T02:07:40.059Z,64.72
2017-09-17T02:08:20.502Z,64.34
2017-09-17T02:09:00.948Z,64.34
2017-09-17T02:09:41.404Z,64.31
2017-09-17T02:10:21.858Z,64.34
2017-09-17T02:11:02.309Z,64.72
2017-09-17T02:11:42.755Z,64.34
2017-09-17T02:12:23.201Z,64.79
2017-09-17T02:13:03.659Z,64.59
2017-09-17T02:13:44.111Z,64.63
2017-09-17T02:14:24.560Z,64.05
2017-09-17T02:15:05.006Z,64.69
2017-09-17T02:15:45.455Z,64.02
2017-09-17T02:16:25.910Z,64.72
2017-09-17T02:17:06.365Z,64.72
2017-09-17T02:17:46.810Z,64.63
2017-09-17T02:18:27.280Z,64.63
2017-09-17T02:19:07.703Z,64.11
2017-09-17T02:19:48.157Z,64.69
2017-09-17T02:20:28.602Z,64.59
2017-09-17T02:21:09.048Z,64.69
2017-09-17T02:21:49.501Z,64.59
2017-09-17T02:22:29.946Z,64.21
2017-09-17T02:23:10.394Z,64.79
2017-09-17T02:23:50.841Z,64.59
2017-09-17T02:24:31.296Z,64.72
2017-09-17T02:25:11.731Z,64.11
2017-09-17T02:25:52.180Z,64.63
2017-09-17T02:26:32.654Z,64.69
2017-09-17T02:27:13.066Z,64.72
2017-09-17T02:27:53.515Z,64.59
2017-09-17T02:28:33.968Z,64.59
2017-09-17T02:29:14.410Z,64.72
2017-09-17T02:29:54.856Z,64.63
2017-09-17T02:30:35.313Z,64.72
2017-09-17T02:31:15.770Z,64.72
2017-09-17T02:31:56.207Z,64.63
2017-09-17T02:32:36.669Z,64.59
2017-09-17T02:33:17.115Z,64.5
2017-09-17T02:33:57.565Z,64.69
2017-09-17T02:34:38.014Z,64.72
2017-09-17T02:35:18.457Z,64.02
2017-09-17T02:35:58.902Z,64.63
2017-09-17T02:36:39.373Z,64.43
2017-09-17T02:37:19.823Z,64.79
2017-09-17T02:38:00.271Z,64.02
2017-09-17T02:38:40.717Z,64.21
2017-09-17T02:39:21.165Z,64.5
2017-09-17T02:40:01.612Z,64.59
2017-09-17T02:40:42.063Z,64.69
2017-09-17T02:41:22.512Z,64.34
2017-09-17T02:42:02.953Z,64.05
2017-09-17T02:42:43.405Z,64.63
2017-09-17T02:43:23.855Z,64.69
2017-09-17T02:44:04.299Z,64.34
2017-09-17T02:44:44.748Z,64.72
2017-09-17T02:45:25.197Z,64.72
2017-09-17T02:46:05.646Z,64.34
2017-09-17T02:46:46.092Z,64.5
2017-09-17T02:47:26.535Z,64.34
2017-09-17T02:48:06.984Z,64.34
2017-09-17T02:48:47.432Z,64.34
2017-09-17T02:49:27.880Z,64.34
2017-09-17T02:50:08.335Z,64.34
2017-09-17T02:50:48.772Z,64.59
2017-09-17T02:51:29.225Z,64.5
2017-09-17T02:52:09.674Z,64.34
2017-09-17T02:52:50.120Z,64.5
2017-09-17T02:53:30.576Z,64.53
2017-09-17T02:54:11.018Z,64.4
2017-09-17T02:54:51.463Z,64.31
2017-09-17T02:55:31.917Z,64.5
2017-09-17T02:56:12.358Z,64.5
2017-09-17T02:56:52.811Z,64.53
2017-09-17T02:57:33.271Z,64.53
2017-09-17T02:58:13.703Z,64.63
2017-09-17T02:58:54.149Z,64.24
2017-09-17T02:59:34.596Z,64.63
2017-09-17T03:00:15.040Z,64.63
2017-09-17T03:00:55.492Z,64.82
2017-09-17T03:01:35.949Z,64.72
2017-09-17T03:02:16.395Z,64.69
2017-09-17T03:02:56.843Z,64.72
2017-09-17T03:03:37.293Z,64.69
2017-09-17T03:04:17.749Z,64.5
2017-09-17T03:04:58.200Z,64.59
2017-09-17T03:05:38.646Z,64.59
2017-09-17T03:06:19.086Z,64.63
2017-09-17T03:06:59.519Z,64.63
2017-09-17T03:07:39.970Z,64.63
2017-09-17T03:08:20.416Z,64.59
2017-09-17T03:09:00.867Z,64.63
2017-09-17T03:09:41.318Z,64.63
2017-09-17T03:10:21.772Z,64.5
2017-09-17T03:11:02.217Z,65.01
2017-09-17T03:11:42.666Z,64.59
2017-09-17T03:12:23.112Z,64.59
2017-09-17T03:13:03.561Z,64.59
2017-09-17T03:13:44.010Z,64.43
2017-09-17T03:14:24.461Z,64.4
2017-09-17T03:15:04.909Z,64.98
2017-09-17T03:15:45.354Z,64.5
2017-09-17T03:16:25.806Z,64.89
2017-09-17T03:17:06.253Z,64.59
2017-09-17T03:17:46.693Z,64.69
2017-09-17T03:18:27.145Z,64.5
2017-09-17T03:19:07.599Z,64.59
2017-09-17T03:19:48.043Z,64.89
2017-09-17T03:20:28.497Z,64.63
2017-09-17T03:21:08.943Z,64.63
2017-09-17T03:21:49.395Z,64.59
2017-09-17T03:22:29.845Z,64.59
2017-09-17T03:23:10.282Z,64.72
2017-09-17T03:23:50.726Z,64.82
2017-09-17T03:24:31.180Z,64.5
2017-09-17T03:25:11.631Z,64.63
2017-09-17T03:25:52.087Z,64.59
2017-09-17T03:26:32.537Z,64.59
2017-09-17T03:27:12.985Z,64.63
2017-09-17T03:27:53.429Z,64.82
2017-09-17T03:28:33.877Z,64.43
2017-09-17T03:29:14.317Z,64.59
2017-09-17T03:29:54.764Z,64.69
2017-09-17T03:30:35.210Z,64.59
2017-09-17T03:31:15.661Z,64.63
2017-09-17T03:31:56.106Z,64.82
2017-09-17T03:32:36.547Z,64.63
2017-09-17T03:33:16.992Z,64.5
2017-09-17T03:33:57.442Z,64.82
2017-09-17T03:34:37.885Z,64.79
2017-09-17T03:35:18.325Z,64.63
2017-09-17T03:35:58.778Z,64.82
2017-09-17T03:36:39.229Z,64.69
2017-09-17T03:37:19.676Z,64.79
2017-09-17T03:38:00.124Z,64.53
2017-09-17T03:38:40.573Z,64.92
2017-09-17T03:39:21.021Z,64.92
2017-09-17T03:40:01.482Z,64.53
2017-09-17T03:40:41.928Z,64.59
2017-09-17T03:41:22.377Z,64.5
2017-09-17T03:42:02.823Z,64.5
2017-09-17T03:42:43.266Z,64.59
2017-09-17T03:43:23.710Z,64.53
2017-09-17T03:44:04.155Z,64.82
2017-09-17T03:44:44.604Z,64.5
2017-09-17T03:45:25.051Z,64.5
2017-09-17T03:46:05.501Z,64.69
2017-09-17T03:46:45.950Z,64.92
2017-09-17T03:47:26.399Z,64.69
2017-09-17T03:48:06.842Z,64.5
2017-09-17T03:48:47.291Z,64.79
2017-09-17T03:49:27.753Z,64.89
2017-09-17T03:50:08.194Z,64.59
2017-09-17T03:50:48.640Z,64.79
2017-09-17T03:51:29.082Z,64.79
2017-09-17T03:52:09.524Z,64.79
2017-09-17T03:52:49.974Z,64.79
2017-09-17T03:53:30.413Z,64.79
2017-09-17T03:54:10.855Z,64.82
2017-09-17T03:54:51.310Z,64.79
2017-09-17T03:55:31.758Z,64.79
2017-09-17T03:56:12.205Z,64.79
2017-09-17T03:56:52.651Z,64.69
2017-09-17T03:57:33.111Z,64.79
2017-09-17T03:58:13.561Z,64.69
2017-09-17T03:58:53.997Z,64.59
2017-09-17T03:59:34.436Z,64.79
2017-09-17T04:00:14.877Z,64.4
2017-09-17T04:00:55.329Z,64.59
2017-09-17T04:01:35.781Z,64.5
2017-09-17T04:02:16.258Z,64.5
2017-09-17T04:02:56.687Z,64.5
2017-09-17T04:03:37.143Z,64.59
2017-09-17T04:04:17.585Z,64.5
2017-09-17T04:04:58.039Z,64.59
2017-09-17T04:05:38.490Z,64.72
2017-09-17T04:06:18.913Z,64.72
2017-09-17T04:06:59.355Z,64.63
2017-09-17T04:07:39.808Z,64.69
2017-09-17T04:08:20.252Z,64.53
2017-09-17T04:09:00.700Z,64.53
2017-09-17T04:09:41.151Z,64.59
2017-09-17T04:10:21.601Z,64.43
2017-09-17T04:11:02.063Z,64.63
2017-09-17T04:11:42.539Z,64.53
2017-09-17T04:12:22.968Z,64.53
2017-09-17T04:13:03.413Z,64.82
2017-09-17T04:13:43.866Z,64.82
2017-09-17T04:14:24.315Z,64.82
2017-09-17T04:15:04.766Z,64.82
2017-09-17T04:15:45.216Z,64.63
2017-09-17T04:16:25.662Z,64.53
2017-09-17T04:17:06.111Z,64.53
2017-09-17T04:17:46.562Z,64.72
2017-09-17T04:18:27.009Z,64.63
2017-09-17T04:19:07.458Z,64.72
2017-09-17T04:19:47.913Z,64.63
2017-09-17T04:20:28.356Z,64.72
2017-09-17T04:21:08.805Z,64.72
2017-09-17T04:21:49.249Z,64.53
2017-09-17T04:22:29.696Z,64.72
2017-09-17T04:23:10.147Z,64.72
2017-09-17T04:23:50.596Z,64.72
2017-09-17T04:24:31.046Z,64.34
2017-09-17T04:25:11.502Z,64.82
2017-09-17T04:25:51.948Z,64.63
2017-09-17T04:26:32.401Z,64.53
2017-09-17T04:27:12.844Z,64.53
2017-09-17T04:27:53.289Z,64.63
2017-09-17T04:28:33.731Z,64.53
2017-09-17T04:29:14.183Z,64.53
2017-09-17T04:29:54.631Z,64.53
2017-09-17T04:30:35.075Z,64.34
2017-09-17T04:31:15.541Z,64.53
2017-09-17T04:31:55.981Z,64.53
2017-09-17T04:32:36.432Z,64.63
2017-09-17T04:33:16.879Z,64.34
2017-09-17T04:33:57.330Z,64.72
2017-09-17T04:34:37.777Z,64.63
2017-09-17T04:35:18.240Z,64.34
2017-09-17T04:35:58.694Z,64.72
2017-09-17T04:36:39.138Z,64.63
2017-09-17T04:37:19.587Z,64.63
2017-09-17T04:38:00.034Z,64.05
2017-09-17T04:38:40.484Z,64.63
2017-09-17T04:39:20.945Z,64.63
2017-09-17T04:40:01.394Z,64.05
2017-09-17T04:40:41.846Z,64.63
2017-09-17T04:41:22.299Z,64.15
2017-09-17T04:42:02.750Z,64.72
2017-09-17T04:42:43.218Z,64.72
2017-09-17T04:43:23.650Z,64.72
2017-09-17T04:44:04.093Z,64.05
2017-09-17T04:44:44.547Z,64.05
2017-09-17T04:45:25.001Z,64.82
2017-09-17T04:46:05.469Z,64.63
2017-09-17T04:46:45.922Z,64.82
2017-09-17T04:47:26.374Z,64.63
2017-09-17T04:48:06.815Z,64.72
2017-09-17T04:48:47.262Z,64.63
2017-09-17T04:49:27.711Z,64.53
2017-09-17T04:50:08.156Z,63.95
2017-09-17T04:50:48.612Z,64.82
2017-09-17T04:51:29.060Z,64.63
2017-09-17T04:52:09.512Z,64.63
2017-09-17T04:52:49.961Z,64.72
2017-09-17T04:53:30.408Z,64.05
2017-09-17T04:54:10.857Z,64.05
2017-09-17T04:54:51.305Z,64.63
2017-09-17T04:55:31.752Z,64.05
2017-09-17T04:56:12.207Z,64.72
2017-09-17T04:56:52.666Z,64.15
2017-09-17T04:57:33.113Z,64.05
2017-09-17T04:58:13.558Z,64.53
2017-09-17T04:58:54.031Z,64.72
2017-09-17T04:59:34.462Z,64.24
2017-09-17T05:00:14.912Z,64.34
2017-09-17T05:00:55.363Z,64.34
2017-09-17T05:01:35.808Z,64.34
2017-09-17T05:02:16.264Z,64.34
2017-09-17T05:02:56.714Z,64.34
2017-09-17T05:03:37.167Z,64.63
2017-09-17T05:04:17.619Z,64.34
2017-09-17T05:04:58.061Z,64.43
2017-09-17T05:05:38.507Z,64.43
2017-09-17T05:06:18.952Z,64.43
2017-09-17T05:06:59.394Z,64.43
2017-09-17T05:07:39.854Z,64.53
2017-09-17T05:08:20.300Z,64.15
2017-09-17T05:09:00.746Z,64.63
2017-09-17T05:09:41.192Z,64.34
2017-09-17T05:10:21.643Z,64.34
2017-09-17T05:11:02.090Z,64.82
2017-09-17T05:11:42.559Z,64.63
2017-09-17T05:12:22.998Z,64.63
2017-09-17T05:13:03.450Z,64.72
2017-09-17T05:13:43.887Z,64.72
2017-09-17T05:14:24.340Z,64.72
2017-09-17T05:15:04.775Z,64.82
2017-09-17T05:15:45.231Z,64.82
2017-09-17T05:16:25.674Z,64.72
2017-09-17T05:17:06.117Z,64.72
2017-09-17T05:17:46.571Z,64.63
2017-09-17T05:18:27.016Z,64.72
2017-09-17T05:19:07.472Z,64.72
2017-09-17T05:19:47.927Z,64.53
2017-09-17T05:20:28.377Z,64.72
2017-09-17T05:21:08.838Z,64.72
2017-09-17T05:21:49.286Z,64.63
2017-09-17T05:22:29.738Z,64.82
2017-09-17T05:23:10.180Z,64.63
2017-09-17T05:23:50.622Z,64.53
2017-09-17T05:24:31.076Z,64.63
2017-09-17T05:25:11.524Z,64.72
2017-09-17T05:25:51.975Z,64.82
2017-09-17T05:26:32.443Z,64.72
2017-09-17T05:27:12.892Z,64.43
2017-09-17T05:27:53.339Z,64.43
2017-09-17T05:28:33.787Z,64.63
2017-09-17T05:29:14.230Z,64.59
2017-09-17T05:29:54.683Z,64.5
2017-09-17T05:30:35.118Z,64.5
2017-09-17T05:31:15.561Z,64.59
2017-09-17T05:31:56.013Z,64.4
2017-09-17T05:32:36.463Z,64.63
2017-09-17T05:33:16.913Z,64.63
2017-09-17T05:33:57.380Z,64.43
2017-09-17T05:34:37.833Z,64.63
2017-09-17T05:35:18.269Z,64.63
2017-09-17T05:35:58.717Z,64.63
2017-09-17T05:36:39.163Z,64.5
2017-09-17T05:37:19.615Z,64.69
2017-09-17T05:38:00.064Z,64.53
2017-09-17T05:38:40.547Z,64.63
2017-09-17T05:39:20.993Z,64.53
2017-09-17T05:40:01.439Z,64.63
2017-09-17T05:40:41.897Z,64.53
2017-09-17T05:41:22.337Z,64.72
2017-09-17T05:42:02.786Z,64.5
2017-09-17T05:42:43.257Z,64.53
2017-09-17T05:43:23.694Z,64.63
2017-09-17T05:44:04.163Z,64.53
2017-09-17T05:44:44.606Z,64.72
2017-09-17T05:45:25.063Z,64.79
2017-09-17T05:46:05.491Z,64.72
2017-09-17T05:46:45.935Z,64.72
2017-09-17T05:47:26.377Z,64.92
2017-09-17T05:48:06.821Z,64.82
2017-09-17T05:48:47.268Z,64.72
2017-09-17T05:51:00.075Z,64.24
2017-09-17T05:51:40.523Z,64.63
2017-09-17T05:52:20.966Z,64.15
2017-09-17T05:53:01.414Z,64.53
2017-09-17T05:53:41.860Z,64.53
2017-09-17T05:54:22.306Z,64.43
2017-09-17T05:55:02.740Z,64.34
2017-09-17T05:55:43.207Z,64.43
2017-09-17T05:56:23.628Z,64.53
2017-09-17T05:57:04.078Z,64.34
2017-09-17T05:57:44.536Z,64.43
2017-09-17T05:58:24.994Z,64.34
2017-09-17T05:59:05.462Z,64.43
2017-09-17T05:59:45.879Z,64.34
2017-09-17T06:00:26.338Z,64.63
2017-09-17T06:01:06.796Z,64.43
2017-09-17T06:01:47.246Z,64.63
2017-09-17T06:02:27.684Z,64.34
2017-09-17T06:03:08.116Z,64.34
2017-09-17T06:03:48.564Z,64.43
2017-09-17T06:04:29.006Z,64.53
2017-09-17T06:05:09.487Z,64.34
2017-09-17T06:05:49.922Z,64.43
2017-09-17T06:06:30.359Z,64.43
2017-09-17T06:07:10.807Z,64.34
2017-09-17T06:07:51.270Z,64.43
2017-09-17T06:08:31.719Z,64.53
2017-09-17T06:09:12.171Z,64.34
2017-09-17T06:09:52.594Z,64.43
2017-09-17T06:10:33.048Z,64.53
2017-09-17T06:11:13.487Z,64.53
2017-09-17T06:11:53.926Z,64.34
2017-09-17T06:12:34.352Z,64.63
2017-09-17T06:13:14.786Z,64.34
2017-09-17T06:13:55.235Z,64.34
2017-09-17T06:14:35.652Z,64.72
2017-09-17T06:15:16.104Z,64.72
2017-09-17T06:15:56.560Z,64.34
2017-09-17T06:16:37.011Z,64.72
2017-09-17T06:17:17.467Z,64.34
2017-09-17T06:17:57.959Z,64.72
2017-09-17T06:18:38.401Z,64.34
2017-09-17T06:19:18.859Z,64.34
2017-09-17T06:19:59.286Z,64.34
2017-09-17T06:20:39.730Z,64.72
2017-09-17T06:21:20.189Z,64.63
2017-09-17T06:22:00.708Z,64.63
2017-09-17T06:22:41.180Z,64.53
2017-09-17T06:23:21.624Z,64.63
2017-09-17T06:24:02.069Z,64.34
2017-09-17T06:24:42.500Z,64.34
2017-09-17T06:25:22.949Z,64.34
2017-09-17T06:26:03.397Z,64.53
2017-09-17T06:26:43.878Z,64.34
2017-09-17T06:27:24.321Z,64.43
2017-09-17T06:28:04.767Z,64.34
2017-09-17T06:28:45.226Z,64.34
2017-09-17T06:29:25.672Z,64.24
2017-09-17T06:30:06.125Z,64.34
2017-09-17T06:30:46.586Z,64.53
2017-09-17T06:31:27.003Z,64.34
2017-09-17T06:32:07.526Z,64.34
2017-09-17T06:32:47.938Z,64.34
2017-09-17T06:33:28.389Z,64.34
2017-09-17T06:34:08.842Z,64.34
2017-09-17T06:34:49.298Z,64.72
2017-09-17T06:35:29.746Z,64.34
2017-09-17T06:36:10.203Z,64.53
2017-09-17T06:36:50.643Z,64.34
2017-09-17T06:37:31.135Z,64.53
2017-09-17T06:38:11.576Z,64.34
2017-09-17T06:38:52.017Z,64.34
2017-09-17T06:39:32.452Z,64.72
2017-09-17T06:40:12.902Z,64.34
2017-09-17T06:40:53.352Z,64.63
2017-09-17T06:41:33.801Z,64.63
2017-09-17T06:42:14.251Z,64.43
2017-09-17T06:42:54.698Z,64.43
2017-09-17T06:43:35.148Z,64.63
2017-09-17T06:44:15.593Z,64.34
2017-09-17T06:44:56.043Z,64.63
2017-09-17T06:45:36.497Z,64.72
2017-09-17T06:46:16.936Z,64.34
2017-09-17T06:46:57.413Z,64.53
2017-09-17T06:47:37.859Z,64.53
2017-09-17T06:48:18.305Z,64.63
2017-09-17T06:48:58.752Z,64.34
2017-09-17T06:49:39.208Z,64.34
2017-09-17T06:50:19.657Z,64.34
2017-09-17T06:51:00.106Z,64.43
2017-09-17T06:51:40.556Z,64.63
2017-09-17T06:52:20.987Z,64.63
2017-09-17T06:53:01.433Z,64.53
2017-09-17T06:53:41.882Z,64.53
2017-09-17T06:54:22.356Z,64.53
2017-09-17T06:55:02.790Z,64.63
2017-09-17T06:55:43.235Z,64.43
2017-09-17T06:56:23.692Z,64.53
2017-09-17T06:57:04.139Z,64.34
2017-09-17T06:57:44.588Z,64.43
2017-09-17T06:58:25.036Z,64.72
2017-09-17T06:59:05.476Z,64.05
2017-09-17T06:59:45.921Z,64.24
2017-09-17T07:00:26.376Z,64.05
2017-09-17T07:01:06.824Z,64.34
2017-09-17T07:01:47.267Z,64.05
2017-09-17T07:02:27.716Z,64.15
2017-09-17T07:03:08.155Z,64.24
2017-09-17T07:03:48.610Z,64.15
2017-09-17T07:04:29.058Z,64.15
2017-09-17T07:05:09.516Z,64.15
2017-09-17T07:05:49.953Z,64.34
2017-09-17T07:06:30.406Z,64.15
2017-09-17T07:07:10.857Z,64.15
2017-09-17T07:07:51.299Z,64.15
2017-09-17T07:08:31.749Z,64.34
2017-09-17T07:09:12.197Z,64.15
2017-09-17T07:09:52.634Z,64.24
2017-09-17T07:10:33.085Z,64.24
2017-09-17T07:11:13.527Z,64.24
2017-09-17T07:11:53.980Z,64.15
2017-09-17T07:12:34.431Z,64.15
2017-09-17T07:13:14.887Z,64.24
2017-09-17T07:13:55.333Z,64.15
2017-09-17T07:14:35.780Z,64.24
2017-09-17T07:15:16.230Z,64.24
2017-09-17T07:15:56.675Z,64.24
2017-09-17T07:16:37.127Z,64.34
2017-09-17T07:17:17.573Z,64.34
2017-09-17T07:17:58.020Z,64.24
2017-09-17T07:18:38.472Z,64.34
2017-09-17T07:19:18.927Z,64.34
2017-09-17T07:19:59.402Z,64.34
2017-09-17T07:20:39.819Z,64.15
2017-09-17T07:21:20.267Z,64.34
2017-09-17T07:22:00.714Z,64.34
2017-09-17T07:22:41.167Z,64.24
2017-09-17T07:23:21.613Z,64.34
2017-09-17T07:24:02.052Z,64.24
2017-09-17T07:24:42.495Z,64.24
2017-09-17T07:25:22.961Z,64.43
2017-09-17T07:26:03.409Z,64.34
2017-09-17T07:26:43.855Z,64.43
2017-09-17T07:27:24.315Z,64.63
2017-09-17T07:28:04.744Z,64.34
2017-09-17T07:28:45.192Z,64.43
2017-09-17T07:29:25.649Z,64.34
2017-09-17T07:30:06.082Z,64.34
2017-09-17T07:30:46.529Z,64.43
2017-09-17T07:31:26.976Z,64.34
2017-09-17T07:32:07.424Z,64.53
2017-09-17T07:32:47.873Z,64.53
2017-09-17T07:33:28.301Z,64.53
2017-09-17T07:34:08.743Z,64.05
2017-09-17T07:34:49.188Z,64.53
2017-09-17T07:35:29.658Z,64.43
2017-09-17T07:36:10.107Z,64.15
2017-09-17T07:36:50.573Z,64.05
2017-09-17T07:37:30.993Z,63.85
2017-09-17T07:38:11.440Z,63.85
2017-09-17T07:38:51.908Z,63.85
2017-09-17T07:39:32.358Z,63.95
2017-09-17T07:40:12.808Z,63.76
2017-09-17T07:40:53.261Z,64.05
2017-09-17T07:41:33.693Z,63.95
2017-09-17T07:42:14.147Z,63.95
2017-09-17T07:42:54.599Z,63.95
2017-09-17T07:43:35.040Z,64.34
2017-09-17T07:44:15.488Z,63.95
2017-09-17T07:44:55.937Z,64.24
2017-09-17T07:45:36.378Z,64.24
2017-09-17T07:46:16.812Z,64.05
2017-09-17T07:46:57.249Z,64.05
2017-09-17T07:47:37.696Z,63.95
2017-09-17T07:48:18.146Z,63.95
2017-09-17T07:48:58.618Z,63.95
2017-09-17T07:49:39.053Z,63.95
2017-09-17T07:50:19.536Z,64.15
2017-09-17T07:50:59.977Z,64.05
2017-09-17T07:51:40.440Z,63.95
2017-09-17T07:52:20.908Z,63.95
2017-09-17T07:53:01.344Z,63.95
2017-09-17T07:53:41.797Z,63.95
2017-09-17T07:54:22.248Z,63.67
2017-09-17T07:55:02.674Z,63.67
2017-09-17T07:55:43.123Z,63.76
2017-09-17T07:56:23.573Z,63.76
2017-09-17T07:57:04.024Z,63.76
2017-09-17T07:57:44.449Z,63.67
2017-09-17T07:58:24.864Z,63.47
2017-09-17T07:59:05.259Z,63.18
2017-09-17T07:59:45.680Z,63.18
2017-09-17T08:00:26.132Z,63.18
2017-09-17T08:01:06.490Z,63.37
2017-09-17T08:01:46.904Z,63.37
2017-09-17T08:02:27.342Z,63.57
2017-09-17T08:03:07.756Z,63.37
2017-09-17T08:03:48.172Z,63.47
2017-09-17T08:04:28.580Z,63.28
2017-09-17T08:05:09.016Z,63.37
2017-09-17T08:05:49.456Z,64.43
2017-09-17T08:06:29.866Z,63.47
2017-09-17T08:07:10.311Z,63.47
2017-09-17T08:07:50.768Z,63.47
2017-09-17T08:08:31.215Z,63.47
2017-09-17T08:09:11.652Z,63.37
2017-09-17T08:09:52.206Z,63.57
2017-09-17T08:10:32.649Z,63.47
2017-09-17T08:11:13.097Z,63.28
2017-09-17T08:11:53.525Z,63.18
2017-09-17T08:12:33.967Z,63.18
2017-09-17T08:13:14.396Z,63.47
2017-09-17T08:13:54.846Z,63.28
2017-09-17T08:14:35.289Z,63.47
2017-09-17T08:15:15.719Z,63.85
2017-09-17T08:17:08.348Z,63.4
2017-09-17T08:17:48.796Z,63.4
2017-09-17T08:18:29.238Z,63.6
2017-09-17T08:19:09.692Z,63.5
2017-09-17T08:19:50.265Z,63.79
2017-09-17T08:20:30.685Z,63.79
2017-09-17T08:21:11.129Z,63.89
2017-09-17T08:21:51.572Z,63.5
2017-09-17T08:22:32.065Z,63.89
2017-09-17T08:23:12.439Z,63.89
2017-09-17T08:23:52.807Z,63.89
2017-09-17T08:24:33.227Z,63.89
2017-09-17T08:25:13.623Z,63.4
2017-09-17T08:25:54.128Z,63.6
2017-09-17T08:26:34.689Z,63.79
2017-09-17T08:27:15.066Z,63.6
2017-09-17T08:27:55.505Z,63.79
2017-09-17T08:28:35.947Z,63.5
2017-09-17T08:29:16.385Z,63.6
2017-09-17T08:29:56.837Z,63.7
2017-09-17T08:30:37.257Z,63.5
2017-09-17T08:31:17.700Z,63.4
2017-09-17T08:31:58.090Z,63.4
2017-09-17T08:32:38.737Z,63.4
2017-09-17T08:33:19.113Z,63.31
2017-09-17T08:33:59.505Z,63.6
2017-09-17T08:34:39.895Z,63.5
2017-09-17T08:35:20.319Z,63.4
2017-09-17T08:36:00.723Z,63.31
2017-09-17T08:36:41.175Z,63.4
2017-09-17T08:37:21.573Z,63.21
2017-09-17T08:38:01.963Z,63.31
2017-09-17T08:38:42.357Z,63.4
2017-09-17T08:39:22.760Z,63.6
2017-09-17T08:41:10.163Z,63.4
2017-09-17T08:41:50.607Z,63.4
2017-09-17T08:42:31.033Z,63.4
2017-09-17T08:43:11.486Z,63.7
2017-09-17T08:43:51.906Z,63.4
2017-09-17T08:44:32.353Z,63.6
2017-09-17T08:45:12.818Z,63.5
2017-09-17T08:45:53.260Z,63.6
2017-09-17T08:46:33.699Z,63.89
2017-09-17T08:47:14.305Z,63.5
2017-09-17T08:47:54.620Z,63.5
2017-09-17T08:48:35.071Z,63.98